sensor_id;sensor_type;location;lat;lon;timestamp;P1;durP1;ratioP1;P2;durP2;ratioP2
57375;SDS011;44805;45.048;5.062;2022-11-15T00:01:26;21.95;;;13.00;;
57375;SDS011;44805;45.048;5.062;2022-11-15T00:03:56;24.70;;;13.50;;
57375;SDS011;44805;45.048;5.062;2022-11-15T00:06:47;20.92;;;11.95;;
57375;SDS011;44805;45.048;5.062;2022-11-15T00:09:13;20.80;;;11.95;;
57375;SDS011;44805;45.048;5.062;2022-11-15T00:11:39;21.95;;;11.77;;
57375;SDS011;44805;45.048;5.062;2022-11-15T00:14:08;23.58;;;13.20;;
57375;SDS011;44805;45.048;5.062;2022-11-15T00:16:39;26.63;;;13.10;;
57375;SDS011;44805;45.048;5.062;2022-11-15T00:19:06;21.58;;;12.60;;
57375;SDS011;44805;45.048;5.062;2022-11-15T00:21:32;21.92;;;11.43;;
57375;SDS011;44805;45.048;5.062;2022-11-15T00:23:58;22.27;;;11.60;;
57375;SDS011;44805;45.048;5.062;2022-11-15T00:26:42;20.67;;;11.02;;
57375;SDS011;44805;45.048;5.062;2022-11-15T00:29:10;21.63;;;11.32;;
57375;SDS011;44805;45.048;5.062;2022-11-15T00:31:36;21.77;;;11.35;;
57375;SDS011;44805;45.048;5.062;2022-11-15T00:34:02;20.90;;;11.68;;
57375;SDS011;44805;45.048;5.062;2022-11-15T00:36:27;19.67;;;11.48;;
57375;SDS011;44805;45.048;5.062;2022-11-15T00:38:53;22.05;;;11.77;;
57375;SDS011;44805;45.048;5.062;2022-11-15T00:41:18;21.42;;;11.98;;
57375;SDS011;44805;45.048;5.062;2022-11-15T00:43:44;20.83;;;11.68;;
57375;SDS011;44805;45.048;5.062;2022-11-15T00:46:12;17.85;;;10.77;;
57375;SDS011;44805;45.048;5.062;2022-11-15T00:48:37;18.13;;;10.68;;
57375;SDS011;44805;45.048;5.062;2022-11-15T00:51:03;20.10;;;11.10;;
57375;SDS011;44805;45.048;5.062;2022-11-15T00:53:28;17.38;;;10.60;;
57375;SDS011;44805;45.048;5.062;2022-11-15T00:55:54;20.55;;;11.40;;
57375;SDS011;44805;45.048;5.062;2022-11-15T00:58:19;18.67;;;10.70;;
57375;SDS011;44805;45.048;5.062;2022-11-15T01:00:46;20.77;;;11.15;;
57375;SDS011;44805;45.048;5.062;2022-11-15T01:03:14;19.63;;;11.40;;
57375;SDS011;44805;45.048;5.062;2022-11-15T01:05:40;18.67;;;10.10;;
57375;SDS011;44805;45.048;5.062;2022-11-15T01:08:11;20.73;;;11.13;;
57375;SDS011;44805;45.048;5.062;2022-11-15T01:10:39;19.73;;;11.05;;
57375;SDS011;44805;45.048;5.062;2022-11-15T01:16:26;20.10;;;11.25;;
57375;SDS011;44805;45.048;5.062;2022-11-15T01:18:53;20.17;;;11.13;;
57375;SDS011;44805;45.048;5.062;2022-11-15T01:21:19;17.10;;;10.23;;
57375;SDS011;44805;45.048;5.062;2022-11-15T01:23:45;18.73;;;10.15;;
57375;SDS011;44805;45.048;5.062;2022-11-15T01:26:11;17.45;;;10.60;;
57375;SDS011;44805;45.048;5.062;2022-11-15T01:28:40;19.33;;;10.80;;
57375;SDS011;44805;45.048;5.062;2022-11-15T01:31:14;17.63;;;9.75;;
57375;SDS011;44805;45.048;5.062;2022-11-15T01:33:43;18.58;;;10.30;;
57375;SDS011;44805;45.048;5.062;2022-11-15T01:36:13;16.15;;;9.18;;
57375;SDS011;44805;45.048;5.062;2022-11-15T01:38:41;15.43;;;9.15;;
57375;SDS011;44805;45.048;5.062;2022-11-15T01:46:59;14.88;;;8.10;;
57375;SDS011;44805;45.048;5.062;2022-11-15T01:49:28;14.38;;;7.65;;
57375;SDS011;44805;45.048;5.062;2022-11-15T01:51:57;12.48;;;7.65;;
57375;SDS011;44805;45.048;5.062;2022-11-15T01:54:28;12.55;;;7.15;;
57375;SDS011;44805;45.048;5.062;2022-11-15T01:56:59;13.70;;;8.18;;
57375;SDS011;44805;45.048;5.062;2022-11-15T01:59:32;12.05;;;6.93;;
57375;SDS011;44805;45.048;5.062;2022-11-15T02:04:24;12.90;;;6.60;;
57375;SDS011;44805;45.048;5.062;2022-11-15T02:06:53;13.73;;;7.13;;
57375;SDS011;44805;45.048;5.062;2022-11-15T02:09:18;13.32;;;7.65;;
57375;SDS011;44805;45.048;5.062;2022-11-15T02:15:07;13.90;;;7.18;;
57375;SDS011;44805;45.048;5.062;2022-11-15T02:17:48;15.95;;;8.35;;
57375;SDS011;44805;45.048;5.062;2022-11-15T02:20:39;15.43;;;8.73;;
57375;SDS011;44805;45.048;5.062;2022-11-15T02:23:31;16.45;;;8.45;;
57375;SDS011;44805;45.048;5.062;2022-11-15T02:33:03;16.48;;;8.05;;
57375;SDS011;44805;45.048;5.062;2022-11-15T02:38:30;15.65;;;8.82;;
57375;SDS011;44805;45.048;5.062;2022-11-15T02:41:22;18.60;;;9.57;;
57375;SDS011;44805;45.048;5.062;2022-11-15T02:44:07;14.00;;;8.10;;
57375;SDS011;44805;45.048;5.062;2022-11-15T02:46:45;14.88;;;7.55;;
57375;SDS011;44805;45.048;5.062;2022-11-15T02:49:34;15.18;;;8.25;;
57375;SDS011;44805;45.048;5.062;2022-11-15T02:52:05;14.93;;;8.02;;
57375;SDS011;44805;45.048;5.062;2022-11-15T02:54:32;14.75;;;7.82;;
57375;SDS011;44805;45.048;5.062;2022-11-15T03:06:38;12.77;;;7.72;;
57375;SDS011;44805;45.048;5.062;2022-11-15T03:09:17;13.57;;;6.78;;
57375;SDS011;44805;45.048;5.062;2022-11-15T03:15:56;13.50;;;6.75;;
57375;SDS011;44805;45.048;5.062;2022-11-15T03:18:35;13.02;;;6.65;;
57375;SDS011;44805;45.048;5.062;2022-11-15T03:21:05;14.35;;;6.65;;
57375;SDS011;44805;45.048;5.062;2022-11-15T03:23:33;12.45;;;6.30;;
57375;SDS011;44805;45.048;5.062;2022-11-15T03:26:01;12.55;;;6.97;;
57375;SDS011;44805;45.048;5.062;2022-11-15T03:31:55;11.52;;;6.60;;
57375;SDS011;44805;45.048;5.062;2022-11-15T03:34:42;12.27;;;7.00;;
57375;SDS011;44805;45.048;5.062;2022-11-15T03:37:14;13.55;;;6.93;;
57375;SDS011;44805;45.048;5.062;2022-11-15T03:39:47;15.95;;;8.20;;
57375;SDS011;44805;45.048;5.062;2022-11-15T03:48:46;15.80;;;8.50;;
57375;SDS011;44805;45.048;5.062;2022-11-15T03:51:19;16.38;;;8.95;;
57375;SDS011;44805;45.048;5.062;2022-11-15T03:53:46;13.23;;;8.10;;
57375;SDS011;44805;45.048;5.062;2022-11-15T03:56:13;16.20;;;8.30;;
57375;SDS011;44805;45.048;5.062;2022-11-15T04:01:43;12.88;;;7.63;;
57375;SDS011;44805;45.048;5.062;2022-11-15T04:04:13;16.67;;;8.70;;
57375;SDS011;44805;45.048;5.062;2022-11-15T04:06:45;13.63;;;7.95;;
57375;SDS011;44805;45.048;5.062;2022-11-15T04:09:11;13.70;;;7.55;;
57375;SDS011;44805;45.048;5.062;2022-11-15T04:17:27;14.00;;;8.40;;
57375;SDS011;44805;45.048;5.062;2022-11-15T04:19:53;15.05;;;8.23;;
57375;SDS011;44805;45.048;5.062;2022-11-15T04:22:38;14.63;;;8.77;;
57375;SDS011;44805;45.048;5.062;2022-11-15T04:25:22;16.08;;;8.82;;
57375;SDS011;44805;45.048;5.062;2022-11-15T04:27:50;16.70;;;8.98;;
57375;SDS011;44805;45.048;5.062;2022-11-15T04:30:17;17.48;;;9.00;;
57375;SDS011;44805;45.048;5.062;2022-11-15T04:32:44;16.73;;;10.00;;
57375;SDS011;44805;45.048;5.062;2022-11-15T04:35:12;16.45;;;9.93;;
57375;SDS011;44805;45.048;5.062;2022-11-15T04:37:44;17.90;;;9.57;;
57375;SDS011;44805;45.048;5.062;2022-11-15T04:40:17;18.85;;;10.32;;
57375;SDS011;44805;45.048;5.062;2022-11-15T04:49:01;15.82;;;9.32;;
57375;SDS011;44805;45.048;5.062;2022-11-15T04:51:30;20.10;;;11.00;;
57375;SDS011;44805;45.048;5.062;2022-11-15T04:53:56;17.00;;;9.18;;
57375;SDS011;44805;45.048;5.062;2022-11-15T04:56:34;17.70;;;9.98;;
57375;SDS011;44805;45.048;5.062;2022-11-15T05:02:45;17.90;;;9.13;;
57375;SDS011;44805;45.048;5.062;2022-11-15T05:05:30;16.90;;;9.73;;
57375;SDS011;44805;45.048;5.062;2022-11-15T05:07:55;19.48;;;10.40;;
57375;SDS011;44805;45.048;5.062;2022-11-15T05:10:27;18.40;;;10.07;;
57375;SDS011;44805;45.048;5.062;2022-11-15T05:13:19;17.75;;;9.48;;
57375;SDS011;44805;45.048;5.062;2022-11-15T05:19:12;16.77;;;9.18;;
57375;SDS011;44805;45.048;5.062;2022-11-15T05:24:33;18.73;;;11.00;;
57375;SDS011;44805;45.048;5.062;2022-11-15T05:27:07;16.60;;;9.73;;
